Time;durP1;ratioP1;P1;durP2;ratioP2;P2;SDS_P1;SDS_P2;PMS_P1;PMS_P2;Temp;Humidity;BMP_temperature;BMP_pressure;BME280_temperature;BME280_humidity;BME280_pressure;Samples;Min_cycle;Max_cycle;Signal;HPM_P1;HPM_P2
2022/08/19 00:03:35;;;;;;;11.40;8.10;;;;;;;22.42;66.08;98087.73;109903;1276;1016970;-79
2022/08/19 00:09:18;;;;;;;10.10;8.00;;;;;;;22.35;66.49;98088.49;109984;1277;1016299;-80
2022/08/19 00:14:53;;;;;;;11.30;8.40;;;;;;;22.27;66.70;98078.84;109983;1276;1016666;-79
2022/08/19 00:19:59;;;;;;;10.20;8.20;;;;;;;22.22;67.03;98069.95;109981;1276;1017738;-78
2022/08/19 00:25:31;;;;;;;10.30;8.10;;;;;;;22.18;67.35;98066.88;109815;1277;1016626;-79
2022/08/19 00:31:04;;;;;;;10.00;8.00;;;;;;;22.19;67.64;98067.28;109971;1277;1016665;-79
2022/08/19 00:36:19;;;;;;;11.00;8.90;;;;;;;22.10;67.76;98059.44;109920;1277;1016341;-79
2022/08/19 00:42:00;;;;;;;10.80;8.70;;;;;;;22.09;68.09;98058.05;109948;1277;1016705;-79
2022/08/19 00:47:28;;;;;;;9.80;8.40;;;;;;;22.04;68.19;98049.37;109953;1277;1017653;-78
2022/08/19 00:52:56;;;;;;;9.70;8.40;;;;;;;21.99;68.35;98045.83;109917;1278;1016970;-79
2022/08/19 00:58:09;;;;;;;9.00;8.00;;;;;;;21.93;68.57;98046.36;109764;1277;1016331;-78
2022/08/19 01:03:38;;;;;;;11.80;8.70;;;;;;;21.84;68.69;98038.37;110037;1277;1016621;-79
2022/08/19 01:09:13;;;;;;;10.30;8.10;;;;;;;21.74;68.98;98032.23;110103;1277;1016694;-78
2022/08/19 01:14:41;;;;;;;9.80;8.10;;;;;;;21.64;69.26;98031.17;109884;1278;1018881;-79
2022/08/19 01:20:04;;;;;;;12.90;8.80;;;;;;;21.53;69.46;98031.01;109738;1277;1018073;-78
2022/08/19 01:25:33;;;;;;;11.00;8.90;;;;;;;21.43;69.74;98030.14;109971;1277;1016674;-78
2022/08/19 01:31:28;;;;;;;10.50;9.10;;;;;;;21.34;70.15;98023.55;109650;1281;1017894;-78
2022/08/19 01:36:49;;;;;;;13.10;9.20;;;;;;;21.29;70.55;98018.29;109619;1280;1018891;-78
2022/08/19 01:42:02;;;;;;;13.10;9.20;;;;;;;21.25;70.80;98020.60;107245;1281;5379079;-78
2022/08/19 01:47:27;;;;;;;15.80;14.10;;;;;;;21.24;70.76;98021.77;109529;1281;1016691;-78
2022/08/19 01:52:59;;;;;;;13.80;10.30;;;;;;;21.29;70.93;98017.29;109574;1278;1016795;-78
2022/08/19 01:58:37;;;;;;;12.00;9.90;;;;;;;21.20;71.32;98018.61;109858;1278;1016236;-79
2022/08/19 02:03:45;;;;;;;11.80;9.10;;;;;;;21.13;71.79;98015.70;109946;1278;1016697;-78
2022/08/19 02:09:16;;;;;;;13.30;9.60;;;;;;;21.09;72.18;98013.55;109867;1277;1016559;-79
2022/08/19 02:14:52;;;;;;;13.60;9.50;;;;;;;21.04;72.38;98012.19;109936;1277;1017896;-79
2022/08/19 02:20:16;;;;;;;13.30;10.60;;;;;;;21.02;72.67;98010.16;110082;1277;1016512;-78
2022/08/19 02:25:39;;;;;;;14.40;10.50;;;;;;;21.01;73.03;98001.14;109997;1278;1016719;-78
2022/08/19 02:31:17;;;;;;;15.80;11.20;;;;;;;20.96;73.02;97997.04;110028;1276;1016645;-78
2022/08/19 02:37:02;;;;;;;12.40;9.80;;;;;;;20.89;73.33;97995.83;109659;1281;1016409;-78
2022/08/19 02:42:35;;;;;;;13.40;10.00;;;;;;;20.81;73.59;97997.85;109534;1281;1018814;-79
2022/08/19 02:48:00;;;;;;;13.10;10.30;;;;;;;20.75;73.73;97996.94;109597;1280;1016498;-78
2022/08/19 02:59:36;;;;;;;12.40;9.70;;;;;;;20.69;74.26;97990.83;109617;1282;1017845;-79
2022/08/19 03:04:49;;;;;;;13.60;11.10;;;;;;;20.68;74.34;97984.44;109739;1280;1017279;-79
2022/08/19 03:10:39;;;;;;;14.40;11.90;;;;;;;20.68;74.57;97987.00;109813;1278;1016726;-78
2022/08/19 03:15:50;;;;;;;17.10;12.00;;;;;;;20.63;74.56;97979.55;109931;1276;1016800;-79
2022/08/19 03:21:07;;;;;;;17.70;11.60;;;;;;;20.57;74.79;97982.05;109907;1277;1016784;-77
2022/08/19 03:27:35;;;;;;;;;;;;;;;;;;;;;
2022/08/19 03:34:27;;;;;;;;;;;;;;;;;;;;;
2022/08/19 03:40:04;;;;;;;14.70;11.30;;;;;;;20.43;75.26;98012.86;109718;1279;1016615;-79
2022/08/19 03:46:08;;;;;;;;;;;;;;;;;;;;;
2022/08/19 03:53:04;;;;;;;14.20;11.00;;;;;;;20.42;75.52;98017.97;109483;1280;1019232;-77
2022/08/19 04:05:19;;;;;;;;;;;;;;;;;;;;;
2022/08/19 04:17:09;;;;;;;15.10;11.60;;;;;;;20.48;75.75;98061.71;109585;1277;1016622;-77
2022/08/19 04:22:52;;;;;;;15.60;10.70;;;;;;;20.59;75.81;98068.98;109928;1277;1016422;-76
2022/08/19 04:28:00;;;;;;;14.20;11.20;;;;;;;20.70;75.72;98069.04;109882;1277;1016625;-77
2022/08/19 04:33:16;;;;;;;15.50;11.10;;;;;;;20.81;75.62;98077.95;109789;1277;1017112;-78
2022/08/19 04:38:25;;;;;;;13.80;10.60;;;;;;;20.96;75.80;98078.41;109677;1277;1016214;-77
2022/08/19 04:43:40;;;;;;;14.60;10.80;;;;;;;21.11;75.56;98076.36;109764;1276;1016509;-77
2022/08/19 04:48:56;;;;;;;13.70;11.00;;;;;;;21.23;75.33;98074.66;109754;1276;1018860;-77
2022/08/19 04:54:22;;;;;;;14.90;11.00;;;;;;;21.37;75.25;98077.36;109812;1276;1017797;-77
2022/08/19 04:59:42;;;;;;;16.10;11.70;;;;;;;21.52;75.22;98068.06;109753;1276;1018001;-77
2022/08/19 05:04:56;;;;;;;14.90;11.40;;;;;;;21.66;74.98;98072.61;109757;1276;1016157;-77
2022/08/19 05:10:16;;;;;;;15.00;11.00;;;;;;;21.81;74.77;98072.23;109706;1277;1016269;-77
2022/08/19 05:15:22;;;;;;;16.20;11.50;;;;;;;21.96;74.56;98071.77;109798;1276;1015948;-78
2022/08/19 05:26:25;;;;;;;14.50;10.70;;;;;;;22.22;74.16;98074.23;109787;1276;1016708;-78
2022/08/19 05:31:59;;;;;;;13.80;11.40;;;;;;;22.40;73.91;98085.08;109847;1276;1018492;-77
2022/08/19 05:37:36;;;;;;;15.00;12.30;;;;;;;22.59;73.61;98084.21;109798;1276;1016684;-77
2022/08/19 05:42:42;;;;;;;12.80;11.20;;;;;;;22.81;73.35;98087.63;109763;1276;1016483;-77
2022/08/19 05:48:06;;;;;;;16.40;11.90;;;;;;;23.04;73.10;98094.07;109626;1276;1017300;-78
2022/08/19 05:53:49;;;;;;;12.50;10.80;;;;;;;23.30;72.90;98089.34;109994;1276;1016049;-78
2022/08/19 05:59:02;;;;;;;12.20;11.00;;;;;;;23.56;72.27;98099.64;110102;1276;1016648;-78
2022/08/19 06:04:15;;;;;;;14.90;10.90;;;;;;;23.84;71.79;98105.55;110262;1277;1016604;-77
2022/08/19 06:09:20;;;;;;;13.20;11.20;;;;;;;24.08;71.10;98104.95;110225;1277;1020368;-76
2022/08/19 06:14:26;;;;;;;12.90;11.30;;;;;;;24.31;70.50;98109.42;110031;1276;1017960;-77
2022/08/19 06:19:32;;;;;;;12.10;10.90;;;;;;;24.55;69.84;98117.86;109980;1276;1016649;-79
2022/08/19 06:25:03;;;;;;;12.20;10.70;;;;;;;24.85;69.33;98118.52;109978;1276;1016619;-78
2022/08/19 06:30:19;;;;;;;15.10;11.50;;;;;;;25.17;68.15;98127.16;109901;1276;1016604;-78
2022/08/19 06:35:25;;;;;;;19.60;11.70;;;;;;;25.42;67.43;98132.70;109779;1276;1016614;-77
2022/08/19 06:40:30;;;;;;;12.90;11.50;;;;;;;25.68;66.61;98139.01;109814;1277;1016271;-77
2022/08/19 06:46:03;;;;;;;13.60;11.10;;;;;;;25.95;65.84;98146.36;110031;1276;1016219;-78
2022/08/19 06:51:11;;;;;;;13.20;10.40;;;;;;;26.22;65.04;98156.77;109982;1276;1016973;-77
2022/08/19 06:56:41;;;;;;;14.20;11.00;;;;;;;26.50;64.49;98164.38;109876;1277;1016092;-78
2022/08/19 07:02:09;;;;;;;16.30;11.50;;;;;;;26.83;63.95;98164.94;109981;1277;1018363;-77
2022/08/19 07:07:16;;;;;;;14.90;11.50;;;;;;;27.16;63.25;98167.48;109983;1277;1016619;-75
2022/08/19 07:12:24;;;;;;;17.30;12.10;;;;;;;27.43;62.27;98172.59;109802;1276;1016225;-75
2022/08/19 07:17:35;;;;;;;19.20;11.90;;;;;;;27.68;61.67;98185.50;109891;1276;1016389;-75
2022/08/19 07:22:41;;;;;;;16.50;11.50;;;;;;;27.94;61.06;98197.09;109952;1276;1017926;-76
2022/08/19 07:28:14;;;;;;;12.30;9.80;;;;;;;28.19;59.96;98200.61;109789;1275;1015982;-75
2022/08/19 07:33:29;;;;;;;15.00;10.20;;;;;;;28.30;58.71;98203.39;109790;1276;1016344;-78
2022/08/19 07:38:38;;;;;;;11.00;8.90;;;;;;;28.44;58.08;98207.23;109884;1277;1016485;-75
2022/08/19 07:44:01;;;;;;;;;;;;;;;;;;;;;
2022/08/19 07:49:14;;;;;;;9.80;8.70;;;;;;;28.76;56.71;98213.08;109765;1276;1016618;-75
2022/08/19 07:54:35;;;;;;;13.70;10.20;;;;;;;29.04;56.30;98208.48;109964;1277;1016460;-77
2022/08/19 07:59:40;;;;;;;13.20;9.90;;;;;;;29.23;55.88;98209.83;109797;1279;1016303;-74
2022/08/19 08:10:12;;;;;;;10.60;9.50;;;;;;;29.83;54.66;98218.31;109997;1276;1016383;-75
2022/08/19 08:15:28;;;;;;;10.10;9.00;;;;;;;30.07;53.86;98212.21;109898;1276;1018552;-76
2022/08/19 08:20:33;;;;;;;16.60;10.00;;;;;;;30.17;52.55;98210.66;109961;1276;1016763;-75
2022/08/19 08:25:37;;;;;;;11.30;9.60;;;;;;;30.11;51.77;98211.77;109699;1276;1016152;-78
2022/08/19 08:30:43;;;;;;;10.80;9.70;;;;;;;30.02;50.85;98207.67;110018;1276;1016685;-73
2022/08/19 08:35:47;;;;;;;10.60;8.20;;;;;;;30.02;51.16;98201.27;109775;1276;1019787;-74
2022/08/19 08:41:05;;;;;;;10.60;9.00;;;;;;;30.24;51.23;98195.56;109970;1276;1017283;-75
2022/08/19 08:46:16;;;;;;;11.10;9.30;;;;;;;30.60;50.82;98191.70;109778;1276;1016917;-76
2022/08/19 08:51:50;;;;;;;11.60;9.70;;;;;;;30.95;50.46;98194.09;109620;1278;1017567;-76
2022/08/19 08:57:18;;;;;;;12.70;8.70;;;;;;;31.30;49.75;98194.70;109927;1277;1018062;-75
2022/08/19 09:02:29;;;;;;;11.40;10.10;;;;;;;31.51;48.79;98194.77;109547;1276;1016752;-75
2022/08/19 09:07:58;;;;;;;15.20;10.40;;;;;;;31.73;48.92;98198.98;109746;1277;1017046;-75
2022/08/19 09:13:19;;;;;;;11.30;10.00;;;;;;;31.97;48.59;98198.68;109809;1276;1018373;-75
2022/08/19 09:18:46;;;;;;;11.60;10.00;;;;;;;32.19;48.38;98203.40;109814;1277;1018576;-75
2022/08/19 09:23:49;;;;;;;11.20;9.70;;;;;;;32.30;48.03;98206.53;109906;1276;1016196;-76
2022/08/19 09:28:57;;;;;;;11.70;10.50;;;;;;;32.50;47.95;98212.53;109806;1276;1016596;-75
2022/08/19 09:34:06;;;;;;;13.50;10.30;;;;;;;32.72;47.11;98210.27;109667;1276;1016677;-76
2022/08/19 09:39:25;;;;;;;11.80;10.20;;;;;;;32.60;46.08;98214.73;109955;1276;1017161;-74
2022/08/19 09:44:41;;;;;;;11.40;10.30;;;;;;;32.62;46.54;98217.98;109662;1276;1016593;-75
2022/08/19 09:49:44;;;;;;;10.60;9.50;;;;;;;32.83;46.16;98221.09;110009;1276;1016358;-74
2022/08/19 09:54:46;;;;;;;10.80;9.60;;;;;;;33.08;46.05;98221.29;110109;1276;1017705;-74
2022/08/19 09:59:54;;;;;;;10.20;9.20;;;;;;;33.37;45.46;98216.96;109774;1276;1018842;-74
2022/08/19 10:10:26;;;;;;;10.70;9.50;;;;;;;33.59;44.83;98212.25;110212;1276;1016778;-75
2022/08/19 10:15:28;;;;;;;11.00;9.80;;;;;;;33.78;44.62;98214.14;110049;1276;1016584;-75
2022/08/19 10:20:30;;;;;;;10.80;9.80;;;;;;;33.96;44.24;98212.35;109892;1277;1016181;-75
2022/08/19 10:25:33;;;;;;;11.80;9.90;;;;;;;34.06;43.96;98208.16;109722;1277;1016292;-75
2022/08/19 10:30:37;;;;;;;11.10;9.80;;;;;;;34.11;43.63;98197.70;109804;1276;1018768;-75
2022/08/19 10:36:22;;;;;;;12.50;9.20;;;;;;;34.12;43.22;98195.43;109981;1276;1016518;-75
2022/08/19 10:41:34;;;;;;;10.40;9.30;;;;;;;34.12;43.00;98188.42;109992;1278;1016835;-76
2022/08/19 10:46:44;;;;;;;10.10;9.10;;;;;;;34.25;42.81;98182.25;109848;1276;1016468;-76
2022/08/19 10:57:15;;;;;;;10.50;8.80;;;;;;;34.33;42.00;98170.08;110121;1276;1017332;-76
2022/08/19 11:02:42;;;;;;;10.40;9.30;;;;;;;34.49;41.56;98173.88;109913;1276;1016350;-76
2022/08/19 11:07:51;;;;;;;12.60;8.90;;;;;;;34.35;41.00;98176.23;110059;1276;1016202;-76
2022/08/19 11:12:54;;;;;;;11.50;8.50;;;;;;;34.32;41.01;98181.50;110016;1276;1016598;-76
2022/08/19 11:17:57;;;;;;;9.30;8.40;;;;;;;34.40;38.96;98185.81;109753;1277;1017888;-75
2022/08/19 11:22:59;;;;;;;9.20;7.80;;;;;;;34.19;39.30;98180.43;109648;1276;1016406;-74
2022/08/19 11:28:05;;;;;;;11.40;8.40;;;;;;;34.15;39.84;98174.65;109645;1279;1016548;-74
2022/08/19 11:33:07;;;;;;;9.00;7.90;;;;;;;34.23;39.85;98167.96;109932;1276;1016186;-75
2022/08/19 11:38:30;;;;;;;9.20;7.20;;;;;;;34.58;39.92;98162.88;109674;1281;1017628;-74
2022/08/19 11:43:32;;;;;;;11.90;8.00;;;;;;;34.71;39.47;98167.65;109509;1281;1015930;-74
2022/08/19 11:48:55;;;;;;;10.40;7.70;;;;;;;34.68;39.00;98170.66;109412;1281;1016527;-74
2022/08/19 11:53:59;;;;;;;10.10;7.60;;;;;;;34.61;38.18;98162.70;109472;1281;1016627;-74
2022/08/19 11:59:01;;;;;;;11.00;8.00;;;;;;;34.51;38.62;98161.69;109442;1281;1016652;-73
2022/08/19 12:04:04;;;;;;;9.40;7.40;;;;;;;34.57;38.69;98166.20;109341;1282;1016402;-75
2022/08/19 12:09:09;;;;;;;10.00;7.70;;;;;;;34.67;38.87;98166.11;109875;1277;1016591;-73
2022/08/19 12:14:13;;;;;;;9.70;8.40;;;;;;;34.72;38.69;98158.39;109669;1277;1016719;-73
2022/08/19 12:19:18;;;;;;;10.20;7.70;;;;;;;34.70;38.61;98157.55;109776;1276;1018264;-74
2022/08/19 12:24:24;;;;;;;8.90;7.50;;;;;;;34.74;38.21;98147.28;109917;1276;1016687;-73
2022/08/19 12:29:29;;;;;;;10.50;8.00;;;;;;;34.71;38.23;98144.30;109871;1276;1016927;-73
2022/08/19 12:34:32;;;;;;;8.70;7.70;;;;;;;34.76;38.17;98147.39;109946;1277;1016620;-74
2022/08/19 12:39:42;;;;;;;8.30;7.30;;;;;;;34.87;38.24;98147.33;110063;1277;1018454;-73
2022/08/19 12:44:44;;;;;;;8.70;7.90;;;;;;;35.07;38.11;98146.31;109932;1276;1016963;-73
2022/08/19 12:49:48;;;;;;;10.50;8.40;;;;;;;35.19;38.22;98143.05;109895;1279;1018074;-74
2022/08/19 12:54:57;;;;;;;9.80;8.10;;;;;;;35.32;37.93;98144.91;109712;1277;1016609;-74
2022/08/19 13:00:13;;;;;;;8.80;7.90;;;;;;;35.27;37.67;98145.20;110017;1276;1017395;-73
2022/08/19 13:05:22;;;;;;;10.00;7.60;;;;;;;35.28;37.65;98140.61;110127;1277;1016957;-74
2022/08/19 13:10:28;;;;;;;9.90;8.60;;;;;;;35.25;37.52;98134.98;109783;1276;1017229;-73
2022/08/19 13:15:34;;;;;;;11.20;8.30;;;;;;;35.13;37.32;98135.21;110015;1276;1016603;-74
2022/08/19 13:20:37;;;;;;;9.90;8.30;;;;;;;35.11;37.84;98132.81;110015;1276;1016713;-75
2022/08/19 13:25:41;;;;;;;8.70;7.80;;;;;;;35.13;37.51;98133.16;109994;1276;1016280;-73
2022/08/19 13:36:14;;;;;;;8.80;7.90;;;;;;;35.05;36.89;98126.19;109624;1277;1016806;-74
2022/08/19 13:41:18;;;;;;;8.90;7.10;;;;;;;35.13;37.43;98129.40;109712;1279;1016633;-75
2022/08/19 13:46:21;;;;;;;9.40;7.30;;;;;;;35.32;36.98;98123.77;107721;1276;4913733;-75
2022/08/19 13:51:23;;;;;;;9.40;7.50;;;;;;;35.30;36.76;98125.34;110040;1277;1016252;-82
2022/08/19 13:56:25;;;;;;;8.10;7.30;;;;;;;35.20;36.84;98119.04;110418;1276;1016406;-76
2022/08/19 14:01:28;;;;;;;8.90;8.00;;;;;;;35.11;37.19;98121.38;110088;1276;1015917;-77
2022/08/19 14:06:30;;;;;;;13.30;7.90;;;;;;;35.01;37.21;98117.25;109742;1276;1019131;-75
2022/08/19 14:11:32;;;;;;;10.40;9.00;;;;;;;35.07;37.32;98110.66;109747;1278;1016679;-75
2022/08/19 14:16:34;;;;;;;8.80;7.90;;;;;;;35.22;37.52;98102.39;109725;1278;1016872;-75
2022/08/19 14:21:37;;;;;;;8.80;6.90;;;;;;;35.37;37.28;98098.18;109735;1276;1016621;-74
2022/08/19 14:26:50;;;;;;;8.90;8.00;;;;;;;35.52;36.95;98094.77;109692;1276;1018326;-75
2022/08/19 14:31:53;;;;;;;8.70;7.80;;;;;;;35.62;37.06;98087.58;109810;1276;1016711;-75
2022/08/19 14:37:14;;;;;;;10.00;7.70;;;;;;;35.72;36.75;98080.70;109722;1277;1015968;-74
2022/08/19 14:42:34;;;;;;;9.00;7.40;;;;;;;35.81;36.55;98066.95;109888;1276;1016461;-75
2022/08/19 14:47:38;;;;;;;9.90;7.60;;;;;;;35.75;36.33;98053.31;109833;1277;1016868;-74
2022/08/19 14:52:56;;;;;;;8.00;6.60;;;;;;;35.70;36.31;98046.52;109790;1277;1016080;-74
2022/08/19 14:58:34;;;;;;;10.20;7.00;;;;;;;35.61;36.12;98038.80;109634;1279;1016660;-75
2022/08/19 15:03:41;;;;;;;8.10;6.20;;;;;;;35.48;36.09;98033.64;109755;1279;1016945;-74
2022/08/19 15:08:45;;;;;;;8.80;6.60;;;;;;;35.27;35.75;98030.19;109698;1279;1016901;-74
2022/08/19 15:13:49;;;;;;;9.00;6.10;;;;;;;35.11;35.70;98031.05;109598;1277;1016842;-74
2022/08/19 15:18:57;;;;;;;7.70;6.00;;;;;;;34.97;35.48;98032.73;109726;1278;1016448;-74
2022/08/19 15:24:15;;;;;;;14.70;6.20;;;;;;;34.78;35.10;98015.41;109768;1277;1016635;-75
2022/08/19 15:29:35;;;;;;;8.30;5.60;;;;;;;34.48;35.50;98006.73;109714;1276;1018941;-74
2022/08/19 15:34:37;;;;;;;8.60;5.70;;;;;;;34.19;35.60;97997.43;109723;1277;1016772;-75
2022/08/19 15:39:42;;;;;;;10.60;6.20;;;;;;;33.92;35.55;97986.98;109786;1277;1017090;-75
2022/08/19 15:44:45;;;;;;;8.00;6.20;;;;;;;33.66;35.96;98003.59;109735;1277;1018502;-75
2022/08/19 15:49:51;;;;;;;9.90;5.90;;;;;;;33.35;36.71;98024.41;109704;1278;1016323;-74
2022/08/19 15:54:56;;;;;;;17.40;7.00;;;;;;;33.09;37.00;98038.31;109796;1276;1018689;-74
2022/08/19 16:10:45;;;;;;;15.70;7.80;;;;;;;32.25;38.86;98032.84;109651;1277;1017440;-75
2022/08/19 16:15:47;;;;;;;14.30;8.70;;;;;;;31.93;39.74;98104.80;109665;1277;1019059;-75
2022/08/19 16:20:49;;;;;;;14.60;9.60;;;;;;;31.04;42.51;98123.88;109728;1276;1018991;-75
2022/08/19 16:25:52;;;;;;;11.30;8.60;;;;;;;30.04;44.60;98093.34;109649;1276;1016530;-75
2022/08/19 16:30:56;;;;;;;9.10;8.00;;;;;;;28.96;46.15;98067.50;109552;1276;1016535;-75
2022/08/19 16:36:24;;;;;;;;;;;;;;;;;;;;;
2022/08/19 16:41:49;;;;;;;13.00;8.00;;;;;;;27.56;49.74;98060.48;109691;1278;1019613;-74
2022/08/19 16:46:51;;;;;;;13.00;8.10;;;;;;;27.15;50.89;98053.45;109520;1279;1016669;-75
2022/08/19 16:52:01;;;;;;;13.20;8.50;;;;;;;26.91;52.22;98053.36;109642;1277;1016645;-74
2022/08/19 16:57:07;;;;;;;14.80;9.80;;;;;;;26.69;53.43;98065.36;109736;1277;1017182;-74
2022/08/19 17:02:24;;;;;;;15.10;8.00;;;;;;;26.41;55.71;98116.40;109813;1276;1018561;-74
2022/08/19 17:07:51;;;;;;;10.10;6.70;;;;;;;25.90;55.97;98170.17;109600;1277;1016424;-74
2022/08/19 17:12:53;;;;;;;25.50;20.00;;;;;;;25.37;58.01;98250.84;109795;1277;1016714;-75
2022/08/19 17:17:59;;;;;;;10.00;7.40;;;;;;;24.92;61.06;98271.40;109683;1279;1016614;-74
2022/08/19 17:23:03;;;;;;;20.60;6.50;;;;;;;24.43;64.33;98236.39;109641;1277;1016471;-74
2022/08/19 17:28:22;;;;;;;14.30;5.50;;;;;;;23.99;66.33;98289.96;109564;1276;1018688;-72
2022/08/19 17:33:24;;;;;;;6.40;3.70;;;;;;;22.70;89.46;98332.55;109749;1276;1016627;-72
2022/08/19 17:38:38;;;;;;;8.50;4.20;;;;;;;21.12;100.00;98333.19;109687;1276;1016693;-75
2022/08/19 17:44:39;;;;;;;;;;;;;;;;;;;;;
2022/08/19 17:50:15;;;;;;;12.30;5.20;;;;;;;20.21;92.63;98300.30;109969;1280;1016393;-78
2022/08/19 17:55:36;;;;;;;8.90;4.90;;;;;;;20.08;92.07;98328.69;109448;1283;1016993;-76
2022/08/19 18:00:39;;;;;;;11.20;6.00;;;;;;;20.05;92.83;98388.59;109385;1283;1017168;-76
2022/08/19 18:06:00;;;;;;;13.60;6.80;;;;;;;20.04;93.30;98367.53;109048;1284;1018839;-75
2022/08/19 18:11:03;;;;;;;9.40;5.70;;;;;;;20.12;94.57;98360.66;109374;1284;1020719;-78
2022/08/19 18:16:42;;;;;;;16.10;8.00;;;;;;;20.23;95.35;98276.09;109307;1284;1017596;-80
2022/08/19 18:21:54;;;;;;;11.00;5.70;;;;;;;20.27;95.54;98270.48;109585;1282;1019047;-77
2022/08/19 18:27:08;;;;;;;12.10;7.30;;;;;;;20.24;96.77;98307.65;109326;1283;1017122;-77
2022/08/19 18:32:22;;;;;;;12.20;8.00;;;;;;;20.24;98.20;98333.99;109717;1278;1019063;-77
2022/08/19 18:37:28;;;;;;;13.30;8.80;;;;;;;20.29;98.20;98346.81;109709;1277;1016557;-77
2022/08/19 18:53:33;;;;;;;10.90;7.40;;;;;;;20.49;99.71;98350.48;109773;1278;1016595;-76
2022/08/19 18:58:46;;;;;;;12.50;8.60;;;;;;;20.51;99.93;98386.65;109787;1278;1016522;-76
2022/08/19 19:03:58;;;;;;;14.70;9.60;;;;;;;20.53;99.99;98406.75;109781;1278;1016531;-76
2022/08/19 19:09:08;;;;;;;19.40;10.20;;;;;;;20.56;100.00;98421.55;109751;1278;1016540;-76
2022/08/19 19:14:13;;;;;;;18.30;11.00;;;;;;;20.56;100.00;98393.19;109718;1278;1017594;-77
2022/08/19 19:19:53;;;;;;;;;;;;;;;;;;;;;
2022/08/19 19:25:11;;;;;;;12.30;8.70;;;;;;;20.41;99.98;98338.30;109781;1278;1018205;-78
2022/08/19 19:30:31;;;;;;;9.00;5.80;;;;;;;20.20;98.94;98348.45;109669;1280;1016469;-78
2022/08/19 19:35:39;;;;;;;13.00;7.10;;;;;;;19.98;98.92;98345.45;109843;1278;1016472;-77
2022/08/19 19:41:06;;;;;;;12.60;6.20;;;;;;;19.87;99.37;98315.44;109857;1277;1016256;-77
2022/08/19 19:46:25;;;;;;;9.70;6.60;;;;;;;19.75;99.30;98298.96;109703;1281;1016110;-78
2022/08/19 19:52:10;;;;;;;13.10;7.30;;;;;;;19.69;99.96;98323.54;109677;1278;1016639;-77
2022/08/19 19:57:15;;;;;;;12.90;7.60;;;;;;;19.71;100.00;98323.73;109740;1277;1016227;-77
2022/08/19 20:02:20;;;;;;;10.00;7.90;;;;;;;19.76;100.00;98324.38;109732;1278;1016601;-77
2022/08/19 20:13:12;;;;;;;14.00;10.10;;;;;;;19.99;100.00;98319.84;109813;1277;1017231;-77
2022/08/19 20:18:24;;;;;;;19.40;12.40;;;;;;;20.09;100.00;98316.35;109599;1277;1016441;-76
2022/08/19 20:23:28;;;;;;;23.50;13.10;;;;;;;20.15;100.00;98301.53;109707;1277;1017121;-77
2022/08/19 20:28:31;;;;;;;20.10;12.30;;;;;;;20.23;100.00;98295.36;109818;1277;1016611;-76
2022/08/19 20:33:36;;;;;;;23.20;13.60;;;;;;;20.29;100.00;98297.95;109760;1278;1016617;-78
2022/08/19 20:39:05;;;;;;;17.40;12.80;;;;;;;20.35;100.00;98310.08;109436;1280;1016656;-77
2022/08/19 20:44:28;;;;;;;19.50;12.90;;;;;;;20.44;100.00;98302.77;109433;1281;1018395;-77
2022/08/19 20:49:31;;;;;;;21.10;13.20;;;;;;;20.49;100.00;98302.14;109384;1280;1017992;-76
2022/08/19 20:54:41;;;;;;;22.00;14.40;;;;;;;20.54;100.00;98285.73;109528;1281;1016452;-79
2022/08/19 20:59:45;;;;;;;21.30;13.90;;;;;;;20.60;100.00;98277.56;109474;1281;1016740;-78
2022/08/19 21:04:48;;;;;;;23.10;15.00;;;;;;;20.64;100.00;98276.91;109320;1280;1016691;-78
2022/08/19 21:09:53;;;;;;;22.30;15.30;;;;;;;20.64;100.00;98295.42;109582;1277;1017390;-77
2022/08/19 21:14:56;;;;;;;20.60;12.00;;;;;;;20.63;100.00;98308.87;109740;1277;1016433;-78
2022/08/19 21:19:59;;;;;;;13.50;9.90;;;;;;;20.60;100.00;98320.48;109728;1276;1016776;-78
2022/08/19 21:25:02;;;;;;;12.60;8.90;;;;;;;20.53;100.00;98335.30;109686;1280;1016793;-77
2022/08/19 21:30:05;;;;;;;12.80;8.60;;;;;;;20.44;100.00;98349.55;109752;1277;1017471;-78
2022/08/19 21:35:08;;;;;;;11.20;7.50;;;;;;;20.39;100.00;98357.79;109725;1277;1016478;-78
2022/08/19 21:40:10;;;;;;;12.30;8.70;;;;;;;20.35;100.00;98355.38;109814;1276;1017335;-77
2022/08/19 21:45:16;;;;;;;12.10;7.80;;;;;;;20.30;100.00;98350.41;109842;1277;1018835;-78
2022/08/19 21:50:20;;;;;;;15.70;8.30;;;;;;;20.24;100.00;98346.98;109800;1277;1016250;-76
2022/08/19 21:55:33;;;;;;;9.30;7.50;;;;;;;20.15;100.00;98352.35;109845;1277;1016576;-77
2022/08/19 22:00:35;;;;;;;13.10;8.70;;;;;;;20.10;100.00;98331.52;109740;1277;1017282;-76
2022/08/19 22:05:37;;;;;;;13.40;9.50;;;;;;;20.13;100.00;98310.89;109661;1276;1016534;-77
2022/08/19 22:10:40;;;;;;;12.20;8.50;;;;;;;20.13;100.00;98300.42;109565;1277;1016273;-77
2022/08/19 22:15:47;;;;;;;15.10;9.60;;;;;;;20.12;100.00;98286.48;110081;1277;1016503;-76
2022/08/19 22:20:50;;;;;;;18.70;11.30;;;;;;;20.16;100.00;98270.23;109668;1277;1016301;-76
2022/08/19 22:25:55;;;;;;;57.60;46.80;;;;;;;20.22;100.00;98263.25;109809;1275;1017768;-78
2022/08/19 22:31:00;;;;;;;20.60;14.30;;;;;;;20.27;100.00;98256.42;109923;1276;1016643;-78
2022/08/19 22:36:13;;;;;;;21.70;14.40;;;;;;;20.30;100.00;98253.83;109837;1275;1016446;-76
2022/08/19 22:41:18;;;;;;;22.60;14.40;;;;;;;20.36;100.00;98245.66;109816;1277;1018638;-76
2022/08/19 22:46:44;;;;;;;20.00;14.30;;;;;;;20.42;100.00;98255.31;109871;1277;1016134;-76
2022/08/19 22:57:20;;;;;;;23.60;16.30;;;;;;;20.47;100.00;98227.48;109798;1277;1016717;-77
2022/08/19 23:02:50;;;;;;;21.30;15.50;;;;;;;20.39;100.00;98220.54;109903;1276;1018877;-76
2022/08/19 23:08:00;;;;;;;27.80;17.40;;;;;;;20.34;100.00;98202.13;109774;1277;1016493;-76
2022/08/19 23:13:02;;;;;;;20.30;14.80;;;;;;;20.38;100.00;98218.27;109871;1277;1018560;-76
2022/08/19 23:18:20;;;;;;;26.10;17.20;;;;;;;20.35;100.00;98254.83;109871;1276;1016567;-76
2022/08/19 23:23:26;;;;;;;27.20;16.40;;;;;;;20.31;100.00;98262.08;109757;1276;1016620;-77
2022/08/19 23:33:54;;;;;;;26.50;16.60;;;;;;;20.26;100.00;98273.05;109602;1277;1016654;-77
2022/08/19 23:39:11;;;;;;;25.10;16.90;;;;;;;20.21;100.00;98266.42;109708;1277;1016782;-77
2022/08/19 23:44:42;;;;;;;28.60;15.40;;;;;;;20.15;100.00;98281.95;109630;1277;1016730;-77
2022/08/19 23:49:55;;;;;;;26.00;15.40;;;;;;;20.10;100.00;98283.59;109656;1277;1018161;-77
2022/08/19 23:55:12;;;;;;;24.70;15.60;;;;;;;20.08;100.00;98287.98;109771;1276;1019551;-76
